sensor_id;sensor_type;location;lat;lon;timestamp;noise_LAeq;noise_LA_min;noise_LA_max;noise_LA01;noise_LA95
56099;Laerm;44276;49.534;6.378;2022-10-31T00:01:36;44.68;43.72;45.72;;
56099;Laerm;44276;49.534;6.378;2022-10-31T00:04:06;44.68;43.68;45.72;;
56099;Laerm;44276;49.534;6.378;2022-10-31T00:06:34;44.69;43.49;46.01;;
56099;Laerm;44276;49.534;6.378;2022-10-31T00:09:04;44.69;43.58;45.99;;
56099;Laerm;44276;49.534;6.378;2022-10-31T00:11:33;44.69;43.44;45.80;;
56099;Laerm;44276;49.534;6.378;2022-10-31T00:14:02;44.71;43.44;45.75;;
56099;Laerm;44276;49.534;6.378;2022-10-31T00:16:30;44.69;43.63;45.86;;
56099;Laerm;44276;49.534;6.378;2022-10-31T00:19:01;44.70;43.39;45.80;;
56099;Laerm;44276;49.534;6.378;2022-10-31T00:21:31;44.71;43.54;46.02;;
56099;Laerm;44276;49.534;6.378;2022-10-31T00:24:01;44.71;43.58;45.91;;
56099;Laerm;44276;49.534;6.378;2022-10-31T00:26:30;44.71;43.58;45.86;;
56099;Laerm;44276;49.534;6.378;2022-10-31T00:29:00;44.72;43.49;45.75;;
56099;Laerm;44276;49.534;6.378;2022-10-31T00:31:28;44.73;43.58;45.91;;
56099;Laerm;44276;49.534;6.378;2022-10-31T00:33:58;44.73;43.29;45.72;;
56099;Laerm;44276;49.534;6.378;2022-10-31T00:36:26;44.73;43.58;45.80;;
56099;Laerm;44276;49.534;6.378;2022-10-31T00:38:58;44.74;43.72;45.94;;
56099;Laerm;44276;49.534;6.378;2022-10-31T00:41:27;44.75;43.54;45.83;;
56099;Laerm;44276;49.534;6.378;2022-10-31T00:43:56;44.77;43.49;45.86;;
56099;Laerm;44276;49.534;6.378;2022-10-31T00:46:24;44.77;43.44;45.83;;
56099;Laerm;44276;49.534;6.378;2022-10-31T00:48:53;44.78;43.63;46.05;;
56099;Laerm;44276;49.534;6.378;2022-10-31T00:51:21;44.79;43.72;45.77;;
56099;Laerm;44276;49.534;6.378;2022-10-31T00:53:50;44.79;43.49;45.89;;
56099;Laerm;44276;49.534;6.378;2022-10-31T00:56:19;44.80;43.58;45.89;;
56099;Laerm;44276;49.534;6.378;2022-10-31T00:58:48;44.81;43.54;45.86;;
56099;Laerm;44276;49.534;6.378;2022-10-31T01:01:16;44.82;43.72;45.98;;
56099;Laerm;44276;49.534;6.378;2022-10-31T01:03:45;44.83;43.63;45.94;;
56099;Laerm;44276;49.534;6.378;2022-10-31T01:06:14;44.83;43.72;46.28;;
56099;Laerm;44276;49.534;6.378;2022-10-31T01:08:43;44.85;43.81;46.20;;
56099;Laerm;44276;49.534;6.378;2022-10-31T01:11:14;44.85;43.77;45.89;;
56099;Laerm;44276;49.534;6.378;2022-10-31T01:13:46;44.86;43.68;46.02;;
56099;Laerm;44276;49.534;6.378;2022-10-31T01:16:16;44.87;43.77;45.97;;
56099;Laerm;44276;49.534;6.378;2022-10-31T01:18:46;44.87;43.63;45.99;;
56099;Laerm;44276;49.534;6.378;2022-10-31T01:21:17;44.88;43.86;45.94;;
56099;Laerm;44276;49.534;6.378;2022-10-31T01:23:48;44.89;43.64;45.97;;
56099;Laerm;44276;49.534;6.378;2022-10-31T01:26:19;44.89;43.63;46.02;;
56099;Laerm;44276;49.534;6.378;2022-10-31T01:28:54;44.90;43.68;45.99;;
56099;Laerm;44276;49.534;6.378;2022-10-31T01:31:28;44.90;43.68;46.18;;
56099;Laerm;44276;49.534;6.378;2022-10-31T01:33:57;44.91;43.77;46.07;;
56099;Laerm;44276;49.534;6.378;2022-10-31T01:36:29;44.91;43.81;45.89;;
56099;Laerm;44276;49.534;6.378;2022-10-31T01:39:01;44.92;43.86;46.18;;
56099;Laerm;44276;49.534;6.378;2022-10-31T01:41:35;44.92;43.54;46.18;;
56099;Laerm;44276;49.534;6.378;2022-10-31T01:44:55;44.92;43.54;46.13;;
56099;Laerm;44276;49.534;6.378;2022-10-31T01:47:38;44.93;43.86;46.23;;
56099;Laerm;44276;49.534;6.378;2022-10-31T01:50:23;44.94;43.68;46.20;;
56099;Laerm;44276;49.534;6.378;2022-10-31T01:52:56;44.93;43.58;46.02;;
56099;Laerm;44276;49.534;6.378;2022-10-31T01:55:30;44.92;43.81;46.15;;
56099;Laerm;44276;49.534;6.378;2022-10-31T01:58:06;44.93;43.86;46.05;;
56099;Laerm;44276;49.534;6.378;2022-10-31T02:00:38;44.93;43.72;46.05;;
56099;Laerm;44276;49.534;6.378;2022-10-31T02:03:08;44.92;43.81;46.23;;
56099;Laerm;44276;49.534;6.378;2022-10-31T02:05:37;44.94;43.76;45.99;;
56099;Laerm;44276;49.534;6.378;2022-10-31T02:08:10;44.94;43.81;46.02;;
56099;Laerm;44276;49.534;6.378;2022-10-31T02:10:43;44.94;43.81;46.07;;
56099;Laerm;44276;49.534;6.378;2022-10-31T02:13:12;44.95;43.81;46.15;;
56099;Laerm;44276;49.534;6.378;2022-10-31T02:15:45;44.94;43.94;46.18;;
56099;Laerm;44276;49.534;6.378;2022-10-31T02:18:15;44.95;43.63;46.10;;
56099;Laerm;44276;49.534;6.378;2022-10-31T02:20:57;44.95;43.77;46.23;;
56099;Laerm;44276;49.534;6.378;2022-10-31T02:27:02;44.95;43.81;46.10;;
56099;Laerm;44276;49.534;6.378;2022-10-31T02:30:07;44.96;43.86;46.02;;
56099;Laerm;44276;49.534;6.378;2022-10-31T02:33:00;44.96;43.68;46.05;;
56099;Laerm;44276;49.534;6.378;2022-10-31T02:35:43;44.97;43.86;46.05;;
56099;Laerm;44276;49.534;6.378;2022-10-31T02:38:35;44.96;43.81;46.07;;
56099;Laerm;44276;49.534;6.378;2022-10-31T02:41:15;44.96;43.90;46.10;;
56099;Laerm;44276;49.534;6.378;2022-10-31T02:43:58;44.97;43.94;46.15;;
56099;Laerm;44276;49.534;6.378;2022-10-31T02:46:38;44.97;43.81;46.13;;
56099;Laerm;44276;49.534;6.378;2022-10-31T02:49:19;44.97;43.81;46.02;;
56099;Laerm;44276;49.534;6.378;2022-10-31T02:51:50;44.97;43.86;46.23;;
56099;Laerm;44276;49.534;6.378;2022-10-31T02:54:23;44.97;43.86;46.07;;
56099;Laerm;44276;49.534;6.378;2022-10-31T02:56:57;44.97;43.81;45.99;;
56099;Laerm;44276;49.534;6.378;2022-10-31T02:59:30;44.98;43.81;46.18;;
56099;Laerm;44276;49.534;6.378;2022-10-31T03:02:43;44.97;43.94;46.38;;
56099;Laerm;44276;49.534;6.378;2022-10-31T03:05:48;44.98;43.94;46.30;;
56099;Laerm;44276;49.534;6.378;2022-10-31T03:08:25;44.98;43.86;46.15;;
56099;Laerm;44276;49.534;6.378;2022-10-31T03:11:00;44.98;43.86;46.23;;
56099;Laerm;44276;49.534;6.378;2022-10-31T03:13:37;44.99;43.90;46.02;;
56099;Laerm;44276;49.534;6.378;2022-10-31T03:16:14;44.99;43.72;46.15;;
56099;Laerm;44276;49.534;6.378;2022-10-31T03:18:50;44.99;43.94;46.28;;
56099;Laerm;44276;49.534;6.378;2022-10-31T03:21:27;44.99;43.68;46.28;;
56099;Laerm;44276;49.534;6.378;2022-10-31T03:24:00;44.98;43.81;46.20;;
56099;Laerm;44276;49.534;6.378;2022-10-31T03:26:30;44.99;43.72;46.07;;
56099;Laerm;44276;49.534;6.378;2022-10-31T03:29:05;44.99;43.77;46.10;;
56099;Laerm;44276;49.534;6.378;2022-10-31T03:31:43;44.98;43.72;46.13;;
56099;Laerm;44276;49.534;6.378;2022-10-31T03:34:16;44.98;43.77;45.99;;
56099;Laerm;44276;49.534;6.378;2022-10-31T03:36:52;44.99;43.77;45.97;;
56099;Laerm;44276;49.534;6.378;2022-10-31T03:39:23;44.98;43.68;46.07;;
56099;Laerm;44276;49.534;6.378;2022-10-31T03:41:57;44.99;43.86;46.23;;
56099;Laerm;44276;49.534;6.378;2022-10-31T03:44:30;44.99;43.58;46.23;;
56099;Laerm;44276;49.534;6.378;2022-10-31T03:47:01;44.98;43.49;46.07;;
56099;Laerm;44276;49.534;6.378;2022-10-31T03:49:32;44.98;43.76;45.97;;
56099;Laerm;44276;49.534;6.378;2022-10-31T03:52:09;44.98;43.81;46.15;;
56099;Laerm;44276;49.534;6.378;2022-10-31T03:54:44;44.98;43.90;45.99;;
56099;Laerm;44276;49.534;6.378;2022-10-31T03:57:21;44.98;43.72;46.07;;
56099;Laerm;44276;49.534;6.378;2022-10-31T03:59:59;44.98;43.86;46.15;;
56099;Laerm;44276;49.534;6.378;2022-10-31T04:02:33;44.98;43.90;46.07;;
56099;Laerm;44276;49.534;6.378;2022-10-31T04:05:04;44.97;43.94;46.18;;
56099;Laerm;44276;49.534;6.378;2022-10-31T04:07:40;44.99;43.63;46.02;;
56099;Laerm;44276;49.534;6.378;2022-10-31T04:10:14;44.98;43.90;46.15;;
56099;Laerm;44276;49.534;6.378;2022-10-31T04:12:50;44.98;43.90;46.05;;
56099;Laerm;44276;49.534;6.378;2022-10-31T04:15:21;44.99;43.77;46.02;;
56099;Laerm;44276;49.534;6.378;2022-10-31T04:17:55;44.99;43.81;46.10;;
56099;Laerm;44276;49.534;6.378;2022-10-31T04:20:31;44.99;43.81;46.07;;
56099;Laerm;44276;49.534;6.378;2022-10-31T04:23:02;45.00;43.77;46.10;;
56099;Laerm;44276;49.534;6.378;2022-10-31T04:25:34;45.00;43.81;46.10;;
56099;Laerm;44276;49.534;6.378;2022-10-31T04:28:03;45.00;43.89;46.10;;
56099;Laerm;44276;49.534;6.378;2022-10-31T04:30:31;45.01;43.94;46.05;;
56099;Laerm;44276;49.534;6.378;2022-10-31T04:32:59;45.01;43.86;46.10;;
56099;Laerm;44276;49.534;6.378;2022-10-31T04:35:28;45.01;43.81;46.10;;
56099;Laerm;44276;49.534;6.378;2022-10-31T04:37:57;45.01;43.94;46.10;;
56099;Laerm;44276;49.534;6.378;2022-10-31T04:40:26;45.02;44.03;46.23;;
56099;Laerm;44276;49.534;6.378;2022-10-31T04:42:55;45.01;43.68;46.13;;
56099;Laerm;44276;49.534;6.378;2022-10-31T04:45:23;45.02;43.90;46.18;;
56099;Laerm;44276;49.534;6.378;2022-10-31T04:47:51;45.01;43.99;46.07;;
56099;Laerm;44276;49.534;6.378;2022-10-31T04:50:20;45.02;43.81;46.07;;
56099;Laerm;44276;49.534;6.378;2022-10-31T04:52:48;45.02;43.93;46.07;;
56099;Laerm;44276;49.534;6.378;2022-10-31T04:55:17;45.03;43.99;46.13;;
56099;Laerm;44276;49.534;6.378;2022-10-31T04:57:48;45.02;43.94;46.07;;
56099;Laerm;44276;49.534;6.378;2022-10-31T05:00:20;45.03;43.72;46.13;;
56099;Laerm;44276;49.534;6.378;2022-10-31T05:02:50;45.04;43.99;46.23;;
56099;Laerm;44276;49.534;6.378;2022-10-31T05:05:22;45.03;44.03;46.23;;
56099;Laerm;44276;49.534;6.378;2022-10-31T05:07:51;45.04;43.68;46.43;;
56099;Laerm;44276;49.534;6.378;2022-10-31T05:10:24;45.04;43.94;46.07;;
56099;Laerm;44276;49.534;6.378;2022-10-31T05:12:56;45.04;43.90;46.13;;
56099;Laerm;44276;49.534;6.378;2022-10-31T05:15:27;45.04;43.85;46.28;;
56099;Laerm;44276;49.534;6.378;2022-10-31T05:17:56;45.04;43.85;46.28;;
56099;Laerm;44276;49.534;6.378;2022-10-31T05:20:28;45.04;43.90;46.02;;
56099;Laerm;44276;49.534;6.378;2022-10-31T05:22:58;45.05;44.03;46.23;;
56099;Laerm;44276;49.534;6.378;2022-10-31T05:25:28;45.05;43.77;46.25;;
56099;Laerm;44276;49.534;6.378;2022-10-31T05:27:58;45.05;43.99;46.02;;
56099;Laerm;44276;49.534;6.378;2022-10-31T05:30:30;45.05;44.03;46.18;;
56099;Laerm;44276;49.534;6.378;2022-10-31T05:32:59;45.05;43.72;46.20;;
56099;Laerm;44276;49.534;6.378;2022-10-31T05:35:31;45.04;43.99;46.10;;
56099;Laerm;44276;49.534;6.378;2022-10-31T05:38:00;45.05;43.94;46.18;;
56099;Laerm;44276;49.534;6.378;2022-10-31T05:40:29;45.05;43.81;46.23;;
56099;Laerm;44276;49.534;6.378;2022-10-31T05:42:58;45.06;43.72;46.43;;
56099;Laerm;44276;49.534;6.378;2022-10-31T05:45:27;45.06;43.94;46.13;;
56099;Laerm;44276;49.534;6.378;2022-10-31T05:47:58;45.04;43.81;46.33;;
56099;Laerm;44276;49.534;6.378;2022-10-31T05:50:29;45.05;43.86;46.13;;
56099;Laerm;44276;49.534;6.378;2022-10-31T05:53:00;45.06;43.86;46.15;;
56099;Laerm;44276;49.534;6.378;2022-10-31T05:55:30;45.05;43.90;46.23;;
56099;Laerm;44276;49.534;6.378;2022-10-31T05:58:00;45.06;43.90;46.13;;
56099;Laerm;44276;49.534;6.378;2022-10-31T06:00:29;45.06;43.90;46.35;;
56099;Laerm;44276;49.534;6.378;2022-10-31T06:02:58;45.06;43.72;46.18;;
56099;Laerm;44276;49.534;6.378;2022-10-31T06:05:27;45.06;43.90;46.15;;
56099;Laerm;44276;49.534;6.378;2022-10-31T06:07:56;45.06;43.94;46.15;;
56099;Laerm;44276;49.534;6.378;2022-10-31T06:10:26;45.07;43.97;46.15;;
56099;Laerm;44276;49.534;6.378;2022-10-31T06:12:54;45.06;43.86;46.18;;
56099;Laerm;44276;49.534;6.378;2022-10-31T06:15:24;45.07;43.94;46.25;;
56099;Laerm;44276;49.534;6.378;2022-10-31T06:18:02;45.08;43.94;46.28;;
56099;Laerm;44276;49.534;6.378;2022-10-31T06:20:31;45.06;43.99;46.07;;
56099;Laerm;44276;49.534;6.378;2022-10-31T06:23:00;45.07;43.90;46.20;;
56099;Laerm;44276;49.534;6.378;2022-10-31T06:25:29;45.07;43.99;46.25;;
56099;Laerm;44276;49.534;6.378;2022-10-31T06:27:57;45.07;43.94;46.20;;
56099;Laerm;44276;49.534;6.378;2022-10-31T06:30:27;45.07;44.03;46.15;;
56099;Laerm;44276;49.534;6.378;2022-10-31T06:33:02;45.08;43.72;46.30;;
56099;Laerm;44276;49.534;6.378;2022-10-31T06:35:31;45.07;43.94;46.25;;
56099;Laerm;44276;49.534;6.378;2022-10-31T06:38:00;45.07;43.99;46.18;;
56099;Laerm;44276;49.534;6.378;2022-10-31T06:40:29;45.08;43.99;46.28;;
56099;Laerm;44276;49.534;6.378;2022-10-31T06:42:58;45.08;43.90;46.20;;
56099;Laerm;44276;49.534;6.378;2022-10-31T06:45:28;45.08;43.99;46.45;;
56099;Laerm;44276;49.534;6.378;2022-10-31T06:47:57;45.08;43.99;46.52;;
56099;Laerm;44276;49.534;6.378;2022-10-31T06:50:45;45.08;44.03;46.33;;
56099;Laerm;44276;49.534;6.378;2022-10-31T06:53:14;45.09;44.03;46.30;;
56099;Laerm;44276;49.534;6.378;2022-10-31T06:55:43;45.09;44.07;46.30;;
56099;Laerm;44276;49.534;6.378;2022-10-31T06:58:11;45.09;43.90;46.15;;
56099;Laerm;44276;49.534;6.378;2022-10-31T07:00:41;45.09;43.99;46.15;;
56099;Laerm;44276;49.534;6.378;2022-10-31T07:03:12;45.09;44.04;46.23;;
56099;Laerm;44276;49.534;6.378;2022-10-31T07:05:41;45.10;43.99;46.13;;
56099;Laerm;44276;49.534;6.378;2022-10-31T07:08:11;45.11;43.90;46.28;;
56099;Laerm;44276;49.534;6.378;2022-10-31T07:10:42;45.10;43.81;46.20;;
56099;Laerm;44276;49.534;6.378;2022-10-31T07:13:12;45.11;44.03;46.18;;
56099;Laerm;44276;49.534;6.378;2022-10-31T07:15:44;45.11;43.81;46.18;;
56099;Laerm;44276;49.534;6.378;2022-10-31T07:18:12;45.13;44.03;46.43;;
56099;Laerm;44276;49.534;6.378;2022-10-31T07:20:41;45.12;43.86;46.20;;
56099;Laerm;44276;49.534;6.378;2022-10-31T07:23:10;45.12;43.94;46.48;;
56099;Laerm;44276;49.534;6.378;2022-10-31T07:25:39;45.13;43.99;46.28;;
56099;Laerm;44276;49.534;6.378;2022-10-31T07:28:08;45.15;43.99;46.23;;
56099;Laerm;44276;49.534;6.378;2022-10-31T07:30:37;45.15;43.99;46.23;;
56099;Laerm;44276;49.534;6.378;2022-10-31T07:33:08;45.15;43.81;46.34;;
56099;Laerm;44276;49.534;6.378;2022-10-31T07:35:37;45.14;43.90;46.35;;
56099;Laerm;44276;49.534;6.378;2022-10-31T07:38:10;45.15;44.15;46.20;;
56099;Laerm;44276;49.534;6.378;2022-10-31T07:40:39;45.15;43.81;46.30;;
56099;Laerm;44276;49.534;6.378;2022-10-31T07:43:09;45.16;44.03;46.13;;
56099;Laerm;44276;49.534;6.378;2022-10-31T07:45:40;45.16;43.90;46.15;;
56099;Laerm;44276;49.534;6.378;2022-10-31T07:48:10;45.16;43.99;46.25;;
56099;Laerm;44276;49.534;6.378;2022-10-31T07:50:39;45.17;44.03;46.30;;
56099;Laerm;44276;49.534;6.378;2022-10-31T07:53:10;45.17;44.15;46.18;;
56099;Laerm;44276;49.534;6.378;2022-10-31T07:55:40;45.17;44.15;46.35;;
56099;Laerm;44276;49.534;6.378;2022-10-31T07:58:11;45.18;44.07;46.35;;
56099;Laerm;44276;49.534;6.378;2022-10-31T08:00:42;45.18;44.03;46.25;;
56099;Laerm;44276;49.534;6.378;2022-10-31T08:03:15;45.18;44.07;46.38;;
56099;Laerm;44276;49.534;6.378;2022-10-31T08:05:45;45.18;43.86;46.25;;
56099;Laerm;44276;49.534;6.378;2022-10-31T08:08:15;45.18;43.99;46.30;;
56099;Laerm;44276;49.534;6.378;2022-10-31T08:10:43;45.19;44.03;46.33;;
56099;Laerm;44276;49.534;6.378;2022-10-31T08:13:13;45.18;44.03;46.52;;
56099;Laerm;44276;49.534;6.378;2022-10-31T08:15:42;45.20;43.81;46.25;;
56099;Laerm;44276;49.534;6.378;2022-10-31T08:18:14;45.18;44.03;46.38;;
56099;Laerm;44276;49.534;6.378;2022-10-31T08:20:43;45.18;43.94;46.38;;
56099;Laerm;44276;49.534;6.378;2022-10-31T08:23:13;45.18;44.07;46.23;;
56099;Laerm;44276;49.534;6.378;2022-10-31T08:25:43;45.20;44.11;46.35;;
56099;Laerm;44276;49.534;6.378;2022-10-31T08:28:14;45.19;44.15;46.33;;
56099;Laerm;44276;49.534;6.378;2022-10-31T08:30:43;45.19;43.94;46.40;;
56099;Laerm;44276;49.534;6.378;2022-10-31T08:33:17;45.18;44.07;46.18;;
56099;Laerm;44276;49.534;6.378;2022-10-31T08:35:45;45.19;44.07;46.18;;
56099;Laerm;44276;49.534;6.378;2022-10-31T08:38:14;45.20;44.01;46.73;;
56099;Laerm;44276;49.534;6.378;2022-10-31T08:40:43;45.19;44.11;46.28;;
56099;Laerm;44276;49.534;6.378;2022-10-31T08:43:13;45.20;44.07;46.28;;
56099;Laerm;44276;49.534;6.378;2022-10-31T08:45:43;45.19;44.03;46.57;;
56099;Laerm;44276;49.534;6.378;2022-10-31T08:48:16;45.20;44.11;46.25;;
56099;Laerm;44276;49.534;6.378;2022-10-31T08:50:45;45.20;44.15;46.25;;
56099;Laerm;44276;49.534;6.378;2022-10-31T08:53:17;45.20;44.03;46.50;;
56099;Laerm;44276;49.534;6.378;2022-10-31T08:55:46;45.20;44.03;46.15;;
56099;Laerm;44276;49.534;6.378;2022-10-31T08:58:17;45.20;43.94;46.35;;
56099;Laerm;44276;49.534;6.378;2022-10-31T09:00:49;45.20;44.19;46.28;;
56099;Laerm;44276;49.534;6.378;2022-10-31T09:03:22;45.20;44.07;46.35;;
56099;Laerm;44276;49.534;6.378;2022-10-31T09:06:04;45.20;44.23;46.23;;
56099;Laerm;44276;49.534;6.378;2022-10-31T09:09:31;45.21;44.11;46.35;;
56099;Laerm;44276;49.534;6.378;2022-10-31T09:13:16;45.19;43.90;46.35;;
56099;Laerm;44276;49.534;6.378;2022-10-31T09:16:57;45.21;44.07;46.57;;
56099;Laerm;44276;49.534;6.378;2022-10-31T09:20:13;45.21;44.03;46.30;;
56099;Laerm;44276;49.534;6.378;2022-10-31T09:23:38;45.21;44.23;46.43;;
56099;Laerm;44276;49.534;6.378;2022-10-31T09:31:07;45.21;44.03;46.28;;
56099;Laerm;44276;49.534;6.378;2022-10-31T09:34:37;45.22;44.03;46.23;;
56099;Laerm;44276;49.534;6.378;2022-10-31T09:41:50;45.22;43.99;46.33;;
56099;Laerm;44276;49.534;6.378;2022-10-31T09:44:46;45.21;44.07;46.38;;
56099;Laerm;44276;49.534;6.378;2022-10-31T09:48:02;45.22;43.86;46.57;;
56099;Laerm;44276;49.534;6.378;2022-10-31T09:50:42;45.22;44.11;46.30;;
56099;Laerm;44276;49.534;6.378;2022-10-31T09:53:29;45.22;44.11;46.30;;
56099;Laerm;44276;49.534;6.378;2022-10-31T09:56:37;45.23;44.07;46.43;;
56099;Laerm;44276;49.534;6.378;2022-10-31T09:59:24;45.22;44.07;46.33;;
56099;Laerm;44276;49.534;6.378;2022-10-31T10:02:00;45.23;44.11;46.28;;
56099;Laerm;44276;49.534;6.378;2022-10-31T10:04:40;45.22;44.15;46.30;;
56099;Laerm;44276;49.534;6.378;2022-10-31T10:07:21;45.23;44.03;46.48;;
56099;Laerm;44276;49.534;6.378;2022-10-31T10:09:52;45.26;44.16;46.25;;
56099;Laerm;44276;49.534;6.378;2022-10-31T10:12:40;45.26;44.23;46.28;;
56099;Laerm;44276;49.534;6.378;2022-10-31T10:15:37;45.27;44.23;46.38;;
56099;Laerm;44276;49.534;6.378;2022-10-31T10:18:23;45.27;44.15;46.35;;
56099;Laerm;44276;49.534;6.378;2022-10-31T10:21:18;45.29;44.19;46.50;;
56099;Laerm;44276;49.534;6.378;2022-10-31T10:24:02;45.28;44.23;46.43;;
56099;Laerm;44276;49.534;6.378;2022-10-31T10:26:45;45.30;44.15;46.43;;
56099;Laerm;44276;49.534;6.378;2022-10-31T10:29:34;45.29;44.23;46.45;;
56099;Laerm;44276;49.534;6.378;2022-10-31T10:32:18;45.29;44.11;46.45;;
56099;Laerm;44276;49.534;6.378;2022-10-31T10:34:57;45.29;44.23;46.45;;
56099;Laerm;44276;49.534;6.378;2022-10-31T10:37:31;45.30;44.19;46.40;;
56099;Laerm;44276;49.534;6.378;2022-10-31T10:40:12;45.30;44.31;46.45;;
56099;Laerm;44276;49.534;6.378;2022-10-31T10:42:45;45.30;44.23;46.52;;
56099;Laerm;44276;49.534;6.378;2022-10-31T10:45:38;45.31;44.16;46.78;;
56099;Laerm;44276;49.534;6.378;2022-10-31T10:48:41;45.30;44.23;48.26;;
56099;Laerm;44276;49.534;6.378;2022-10-31T10:51:22;45.25;43.99;46.50;;
56099;Laerm;44276;49.534;6.378;2022-10-31T10:57:44;45.08;43.81;46.38;;
56099;Laerm;44276;49.534;6.378;2022-10-31T11:00:20;44.95;43.72;46.07;;
56099;Laerm;44276;49.534;6.378;2022-10-31T11:02:51;44.80;43.63;46.10;;
56099;Laerm;44276;49.534;6.378;2022-10-31T11:05:30;44.61;43.34;45.89;;
56099;Laerm;44276;49.534;6.378;2022-10-31T11:08:02;44.31;42.98;45.54;;
56099;Laerm;44276;49.534;6.378;2022-10-31T11:10:34;44.14;42.82;45.45;;
56099;Laerm;44276;49.534;6.378;2022-10-31T11:13:22;43.92;42.71;45.30;;
56099;Laerm;44276;49.534;6.378;2022-10-31T11:15:57;43.77;42.47;44.94;;
56099;Laerm;44276;49.534;6.378;2022-10-31T11:18:31;43.69;42.47;45.07;;
56099;Laerm;44276;49.534;6.378;2022-10-31T11:21:04;43.67;42.09;54.57;;
56099;Laerm;44276;49.534;6.378;2022-10-31T11:23:34;43.49;42.22;44.73;;
56099;Laerm;44276;49.534;6.378;2022-10-31T11:26:06;43.34;41.89;44.51;;
56099;Laerm;44276;49.534;6.378;2022-10-31T11:28:44;43.20;41.61;44.43;;
56099;Laerm;44276;49.534;6.378;2022-10-31T11:31:25;43.14;41.75;44.16;;
56099;Laerm;44276;49.534;6.378;2022-10-31T11:34:00;43.18;41.89;44.27;;
56099;Laerm;44276;49.534;6.378;2022-10-31T11:36:34;43.19;42.03;44.76;;
56099;Laerm;44276;49.534;6.378;2022-10-31T11:39:18;43.26;41.96;54.36;;
56099;Laerm;44276;49.534;6.378;2022-10-31T11:41:52;43.31;41.82;48.54;;
56099;Laerm;44276;49.534;6.378;2022-10-31T11:44:26;43.30;41.82;45.30;;
56099;Laerm;44276;49.534;6.378;2022-10-31T11:47:05;43.30;42.03;46.15;;
56099;Laerm;44276;49.534;6.378;2022-10-31T11:49:42;43.29;41.96;45.91;;
56099;Laerm;44276;49.534;6.378;2022-10-31T11:52:23;43.30;42.16;49.98;;
56099;Laerm;44276;49.534;6.378;2022-10-31T11:54:55;43.19;41.61;44.31;;
56099;Laerm;44276;49.534;6.378;2022-10-31T11:57:27;43.36;41.96;45.01;;
56099;Laerm;44276;49.534;6.378;2022-10-31T12:00:04;43.26;41.30;44.31;;
56099;Laerm;44276;49.534;6.378;2022-10-31T12:02:33;43.27;42.09;45.39;;
56099;Laerm;44276;49.534;6.378;2022-10-31T12:05:11;43.33;41.96;46.55;;
56099;Laerm;44276;49.534;6.378;2022-10-31T12:07:50;43.27;41.89;47.57;;
56099;Laerm;44276;49.534;6.378;2022-10-31T12:10:44;43.26;41.82;46.30;;
56099;Laerm;44276;49.534;6.378;2022-10-31T12:13:31;43.24;41.82;50.18;;
56099;Laerm;44276;49.534;6.378;2022-10-31T12:16:12;43.17;41.68;48.26;;
56099;Laerm;44276;49.534;6.378;2022-10-31T12:18:58;43.06;41.61;46.01;;
56099;Laerm;44276;49.534;6.378;2022-10-31T12:21:56;43.06;41.61;44.87;;
56099;Laerm;44276;49.534;6.378;2022-10-31T12:24:58;43.02;41.53;47.90;;
56099;Laerm;44276;49.534;6.378;2022-10-31T12:27:53;43.20;41.61;44.90;;
56099;Laerm;44276;49.534;6.378;2022-10-31T12:30:32;43.23;41.68;45.27;;
56099;Laerm;44276;49.534;6.378;2022-10-31T12:33:27;43.20;41.75;46.30;;
56099;Laerm;44276;49.534;6.378;2022-10-31T12:36:35;43.13;41.55;45.01;;
56099;Laerm;44276;49.534;6.378;2022-10-31T12:39:25;43.21;41.68;53.96;;
56099;Laerm;44276;49.534;6.378;2022-10-31T12:42:08;43.43;41.96;49.65;;
56099;Laerm;44276;49.534;6.378;2022-10-31T12:45:13;43.86;41.61;61.87;;
56099;Laerm;44276;49.534;6.378;2022-10-31T12:48:15;43.09;41.53;47.44;;
56099;Laerm;44276;49.534;6.378;2022-10-31T12:50:57;43.02;41.30;44.47;;
56099;Laerm;44276;49.534;6.378;2022-10-31T12:53:44;43.21;41.46;45.59;;
56099;Laerm;44276;49.534;6.378;2022-10-31T12:56:30;43.22;41.46;60.03;;
56099;Laerm;44276;49.534;6.378;2022-10-31T12:59:10;44.57;41.82;58.13;;
56099;Laerm;44276;49.534;6.378;2022-10-31T13:01:49;43.70;42.03;52.74;;
56099;Laerm;44276;49.534;6.378;2022-10-31T13:04:30;45.20;41.61;65.22;;
56099;Laerm;44276;49.534;6.378;2022-10-31T13:07:09;45.38;40.43;59.04;;
56099;Laerm;44276;49.534;6.378;2022-10-31T13:09:49;44.91;40.43;59.71;;
56099;Laerm;44276;49.534;6.378;2022-10-31T13:12:22;46.81;40.98;60.05;;
56099;Laerm;44276;49.534;6.378;2022-10-31T13:14:57;46.61;41.82;51.70;;
56099;Laerm;44276;49.534;6.378;2022-10-31T13:17:33;46.98;40.71;55.66;;
56099;Laerm;44276;49.534;6.378;2022-10-31T13:20:20;45.17;40.33;57.57;;
56099;Laerm;44276;49.534;6.378;2022-10-31T13:22:56;45.16;35.94;57.67;;
56099;Laerm;44276;49.534;6.378;2022-10-31T13:25:31;49.06;41.22;57.30;;
56099;Laerm;44276;49.534;6.378;2022-10-31T13:28:05;45.64;41.14;57.93;;
56099;Laerm;44276;49.534;6.378;2022-10-31T13:30:41;45.32;39.46;57.79;;
56099;Laerm;44276;49.534;6.378;2022-10-31T13:33:17;43.81;41.22;58.12;;
56099;Laerm;44276;49.534;6.378;2022-10-31T13:35:55;44.06;39.58;56.09;;
56099;Laerm;44276;49.534;6.378;2022-10-31T13:38:38;45.52;38.81;56.56;;
56099;Laerm;44276;49.534;6.378;2022-10-31T13:41:22;44.43;40.08;54.91;;
56099;Laerm;44276;49.534;6.378;2022-10-31T13:44:04;44.67;36.45;59.26;;
56099;Laerm;44276;49.534;6.378;2022-10-31T13:46:39;44.91;38.95;57.82;;
56099;Laerm;44276;49.534;6.378;2022-10-31T13:49:36;43.51;39.70;56.25;;
56099;Laerm;44276;49.534;6.378;2022-10-31T13:52:22;43.63;38.52;52.70;;
56099;Laerm;44276;49.534;6.378;2022-10-31T13:54:53;43.37;39.81;50.41;;
56099;Laerm;44276;49.534;6.378;2022-10-31T13:57:33;44.57;39.58;59.47;;
56099;Laerm;44276;49.534;6.378;2022-10-31T14:00:13;43.30;40.53;57.62;;
56099;Laerm;44276;49.534;6.378;2022-10-31T14:02:57;43.70;40.89;52.49;;
56099;Laerm;44276;49.534;6.378;2022-10-31T14:05:29;45.61;39.70;65.25;;
56099;Laerm;44276;49.534;6.378;2022-10-31T14:08:02;44.01;40.80;52.83;;
56099;Laerm;44276;49.534;6.378;2022-10-31T14:10:36;43.99;40.62;58.24;;
56099;Laerm;44276;49.534;6.378;2022-10-31T14:13:08;43.34;40.23;59.51;;
56099;Laerm;44276;49.534;6.378;2022-10-31T14:15:59;43.02;39.58;61.22;;
56099;Laerm;44276;49.534;6.378;2022-10-31T14:18:48;45.06;40.03;75.09;;
56099;Laerm;44276;49.534;6.378;2022-10-31T14:21:29;43.90;40.53;52.88;;
56099;Laerm;44276;49.534;6.378;2022-10-31T14:24:14;44.73;38.52;55.92;;
56099;Laerm;44276;49.534;6.378;2022-10-31T14:26:55;44.27;39.34;56.49;;
56099;Laerm;44276;49.534;6.378;2022-10-31T14:29:27;43.46;38.81;58.42;;
56099;Laerm;44276;49.534;6.378;2022-10-31T14:32:01;43.56;39.46;50.11;;
56099;Laerm;44276;49.534;6.378;2022-10-31T14:34:38;43.67;40.89;49.79;;
56099;Laerm;44276;49.534;6.378;2022-10-31T14:40:33;44.44;39.81;51.82;;
56099;Laerm;44276;49.534;6.378;2022-10-31T14:43:25;43.99;38.95;48.57;;
56099;Laerm;44276;49.534;6.378;2022-10-31T14:46:01;43.82;40.53;49.56;;
56099;Laerm;44276;49.534;6.378;2022-10-31T14:48:54;43.72;39.92;53.01;;
56099;Laerm;44276;49.534;6.378;2022-10-31T14:51:38;45.01;40.53;58.89;;
56099;Laerm;44276;49.534;6.378;2022-10-31T14:54:14;43.22;39.70;56.10;;
56099;Laerm;44276;49.534;6.378;2022-10-31T14:56:48;43.22;40.89;46.40;;